S.caterina — ILVM2 — position and weather

sailwx.info

Track history (hours):
 
Tides and Currents Weather Stations Pressure Air Temp Water Temp Dewpoint Dewpoint Depression Visibility Wind Speed Wind Dir Waves Ship Positions

S.caterina

Last reported at 2018-Mar-15 10:03 UTC. Time now 2018-Jun-19 10:36 UTC.
Position N 40°10' E 017°42'.
Warning: this ship's position is months out of date.

; draft 2 m.

Type: Fishing. MMSI: 247129450.

Date/timePositionNaut miles runAvg speedWind from/ knotsBaromVisibWave heightAir tempDewpointWater temp
2018-Mar-15 10:03N 40°10' E 017°42'0 2.8
2018-Mar-15 10:00N 40°10' E 017°42'1 2.8
2018-Mar-15 09:30N 40°09' E 017°43'1 2.8
2018-Mar-15 09:00N 40°08' E 017°45'1 2.9
2018-Mar-15 08:30N 40°07' E 017°46'1 1.2
2018-Mar-15 08:00N 40°06' E 017°46'1 2.4
2018-Mar-15 07:29N 40°07' E 017°45'1 2.7
2018-Mar-15 07:00N 40°08' E 017°43'1 2.7
2018-Mar-15 06:30N 40°09' E 017°42'1 2.7
2018-Mar-15 06:00N 40°10' E 017°41'1 2.7
2018-Mar-15 05:30N 40°10' E 017°39'1 2.6
2018-Mar-15 05:00N 40°11' E 017°38'1 2.6
2018-Mar-15 04:31N 40°12' E 017°36'2 4.7
2018-Mar-15 04:00N 40°14' E 017°34'4 8.2
2018-Mar-15 03:30N 40°18' E 017°34'0 0.0
2018-Mar-14 12:07N 40°18' E 017°34'0 2.7
2018-Mar-14 12:00N 40°18' E 017°34'3 5.4
2018-Mar-14 11:30N 40°15' E 017°34'2 4.3
2018-Mar-14 11:00N 40°13' E 017°36'1 1.8
2018-Mar-14 10:30N 40°13' E 017°37'1 2.9
2018-Mar-14 10:01N 40°12' E 017°38'1 2.9
2018-Mar-14 09:30N 40°11' E 017°40'1 2.8
2018-Mar-14 09:00N 40°10' E 017°41'1 2.8
2018-Mar-14 08:30N 40°09' E 017°43'1 0.5
2018-Mar-14 06:33N 40°09' E 017°42'1 2.7
2018-Mar-14 06:18N 40°09' E 017°41'1 2.7
2018-Mar-14 05:55N 40°10' E 017°40'1 2.7
2018-Mar-14 05:29N 40°11' E 017°39'1 2.7
2018-Mar-14 05:00N 40°11' E 017°37'1 2.7
2018-Mar-14 04:30N 40°12' E 017°36'1 2.7
2018-Mar-14 04:00N 40°13' E 017°35'3 6.8
2018-Mar-14 03:30N 40°16' E 017°34'1 0.0
2018-Mar-12 10:03N 40°18' E 017°34'0 6.4
2018-Mar-12 10:00N 40°18' E 017°34'3 6.3
2018-Mar-12 09:30N 40°14' E 017°33'1 1.8
2018-Mar-12 09:00N 40°14' E 017°34'1 3.0
2018-Mar-12 08:30N 40°13' E 017°36'1 3.0
2018-Mar-12 08:00N 40°12' E 017°37'2 2.8
2018-Mar-12 07:27N 40°11' E 017°39'1 1.3
2018-Mar-12 07:00N 40°11' E 017°39'1 2.6
2018-Mar-12 06:30N 40°11' E 017°38'1 2.5
2018-Mar-12 06:00N 40°12' E 017°37'1 2.6
2018-Mar-12 05:30N 40°13' E 017°35'2 4.8
2018-Mar-12 05:00N 40°15' E 017°34'3 0.1
2018-Mar-10 05:47N 40°18' E 017°34'0 1.2
2018-Mar-10 05:30N 40°18' E 017°33'0 0.0
2018-Mar-09 12:04N 40°18' E 017°34'0 3.2
2018-Mar-09 12:00N 40°18' E 017°34'2 3.9
2018-Mar-09 11:30N 40°16' E 017°35'3 6.1
2018-Mar-09 11:00N 40°13' E 017°36'1 1.7
2018-Mar-09 10:30N 40°13' E 017°37'1 2.9
2018-Mar-09 09:59N 40°12' E 017°39'1 2.9
2018-Mar-09 09:30N 40°11' E 017°40'1 2.9
2018-Mar-09 09:00N 40°10' E 017°42'1 2.8
2018-Mar-09 08:30N 40°09' E 017°43'1 2.9
2018-Mar-09 08:00N 40°08' E 017°45'3 1.5
2018-Mar-09 05:53N 40°09' E 017°40'1 2.6
2018-Mar-09 05:29N 40°10' E 017°39'1 2.6
2018-Mar-09 05:00N 40°10' E 017°38'1 2.7
2018-Mar-09 04:30N 40°11' E 017°37'1 2.6
2018-Mar-09 04:00N 40°12' E 017°36'2 3.7
2018-Mar-09 03:30N 40°14' E 017°34'4 8.0
2018-Mar-09 03:00N 40°17' E 017°34'  
2018-Mar-05 11:16N 40°18' E 017°34'1 3.9
2018-Mar-05 11:00N 40°17' E 017°35'4 8.4
2018-Mar-05 10:30N 40°13' E 017°38'  
Track history (hours):
 
Tides and Currents Weather Stations Pressure Air Temp Water Temp Dewpoint Dewpoint Depression Visibility Wind Speed Wind Dir Waves Ship Positions

S.caterina

Last reported at 2018-Mar-15 10:03 UTC. Time now 2018-Jun-19 10:36 UTC.
Position N 40°10' E 017°42'.
Warning: this ship's position is months out of date.

; draft 2 m.

Type: Fishing. MMSI: 247129450.

Date/timePositionNaut miles runAvg speedWind from/ knotsBaromVisibWave heightAir tempDewpointWater temp
2018-Mar-15 10:03N 40°10' E 017°42'0 2.8
2018-Mar-15 10:00N 40°10' E 017°42'1 2.8
2018-Mar-15 09:30N 40°09' E 017°43'1 2.8
2018-Mar-15 09:00N 40°08' E 017°45'1 2.9
2018-Mar-15 08:30N 40°07' E 017°46'1 1.2
2018-Mar-15 08:00N 40°06' E 017°46'1 2.4
2018-Mar-15 07:29N 40°07' E 017°45'1 2.7
2018-Mar-15 07:00N 40°08' E 017°43'1 2.7
2018-Mar-15 06:30N 40°09' E 017°42'1 2.7
2018-Mar-15 06:00N 40°10' E 017°41'1 2.7
2018-Mar-15 05:30N 40°10' E 017°39'1 2.6
2018-Mar-15 05:00N 40°11' E 017°38'1 2.6
2018-Mar-15 04:31N 40°12' E 017°36'2 4.7
2018-Mar-15 04:00N 40°14' E 017°34'4 8.2
2018-Mar-15 03:30N 40°18' E 017°34'0 0.0
2018-Mar-14 12:07N 40°18' E 017°34'0 2.7
2018-Mar-14 12:00N 40°18' E 017°34'3 5.4
2018-Mar-14 11:30N 40°15' E 017°34'2 4.3
2018-Mar-14 11:00N 40°13' E 017°36'1 1.8
2018-Mar-14 10:30N 40°13' E 017°37'1 2.9
2018-Mar-14 10:01N 40°12' E 017°38'1 2.9
2018-Mar-14 09:30N 40°11' E 017°40'1 2.8
2018-Mar-14 09:00N 40°10' E 017°41'1 2.8
2018-Mar-14 08:30N 40°09' E 017°43'1 0.5
2018-Mar-14 06:33N 40°09' E 017°42'1 2.7
2018-Mar-14 06:18N 40°09' E 017°41'1 2.7
2018-Mar-14 05:55N 40°10' E 017°40'1 2.7
2018-Mar-14 05:29N 40°11' E 017°39'1 2.7
2018-Mar-14 05:00N 40°11' E 017°37'1 2.7
2018-Mar-14 04:30N 40°12' E 017°36'1 2.7
2018-Mar-14 04:00N 40°13' E 017°35'3 6.8
2018-Mar-14 03:30N 40°16' E 017°34'1 0.0
2018-Mar-12 10:03N 40°18' E 017°34'0 6.4
2018-Mar-12 10:00N 40°18' E 017°34'3 6.3
2018-Mar-12 09:30N 40°14' E 017°33'1 1.8
2018-Mar-12 09:00N 40°14' E 017°34'1 3.0
2018-Mar-12 08:30N 40°13' E 017°36'1 3.0
2018-Mar-12 08:00N 40°12' E 017°37'2 2.8
2018-Mar-12 07:27N 40°11' E 017°39'1 1.3
2018-Mar-12 07:00N 40°11' E 017°39'1 2.6
2018-Mar-12 06:30N 40°11' E 017°38'1 2.5
2018-Mar-12 06:00N 40°12' E 017°37'1 2.6
2018-Mar-12 05:30N 40°13' E 017°35'2 4.8
2018-Mar-12 05:00N 40°15' E 017°34'3 0.1
2018-Mar-10 05:47N 40°18' E 017°34'0 1.2
2018-Mar-10 05:30N 40°18' E 017°33'0 0.0
2018-Mar-09 12:04N 40°18' E 017°34'0 3.2
2018-Mar-09 12:00N 40°18' E 017°34'2 3.9
2018-Mar-09 11:30N 40°16' E 017°35'3 6.1
2018-Mar-09 11:00N 40°13' E 017°36'1 1.7
2018-Mar-09 10:30N 40°13' E 017°37'1 2.9
2018-Mar-09 09:59N 40°12' E 017°39'1 2.9
2018-Mar-09 09:30N 40°11' E 017°40'1 2.9
2018-Mar-09 09:00N 40°10' E 017°42'1 2.8
2018-Mar-09 08:30N 40°09' E 017°43'1 2.9
2018-Mar-09 08:00N 40°08' E 017°45'3 1.5
2018-Mar-09 05:53N 40°09' E 017°40'1 2.6
2018-Mar-09 05:29N 40°10' E 017°39'1 2.6
2018-Mar-09 05:00N 40°10' E 017°38'1 2.7
2018-Mar-09 04:30N 40°11' E 017°37'1 2.6
2018-Mar-09 04:00N 40°12' E 017°36'2 3.7
2018-Mar-09 03:30N 40°14' E 017°34'4 8.0
2018-Mar-09 03:00N 40°17' E 017°34'  
2018-Mar-05 11:16N 40°18' E 017°34'1 3.9
2018-Mar-05 11:00N 40°17' E 017°35'4 8.4
2018-Mar-05 10:30N 40°13' E 017°38'  

Dump ship's entire track history